sensor_id;sensor_type;location;lat;lon;timestamp;P1;durP1;ratioP1;P2;durP2;ratioP2
77430;SDS011;66498;48.564;19.272;2023-02-15T00:01:23;46.65;;;23.15;;
77430;SDS011;66498;48.564;19.272;2023-02-15T00:03:49;42.97;;;21.43;;
77430;SDS011;66498;48.564;19.272;2023-02-15T00:06:15;41.93;;;22.40;;
77430;SDS011;66498;48.564;19.272;2023-02-15T00:08:41;44.50;;;22.80;;
77430;SDS011;66498;48.564;19.272;2023-02-15T00:11:07;50.17;;;24.17;;
77430;SDS011;66498;48.564;19.272;2023-02-15T00:13:34;40.83;;;21.07;;
77430;SDS011;66498;48.564;19.272;2023-02-15T00:16:08;39.90;;;20.70;;
77430;SDS011;66498;48.564;19.272;2023-02-15T00:18:35;40.47;;;21.90;;
77430;SDS011;66498;48.564;19.272;2023-02-15T00:21:05;43.67;;;21.90;;
77430;SDS011;66498;48.564;19.272;2023-02-15T00:23:32;40.07;;;20.13;;
77430;SDS011;66498;48.564;19.272;2023-02-15T00:26:09;39.93;;;20.23;;
77430;SDS011;66498;48.564;19.272;2023-02-15T00:28:36;42.40;;;20.58;;
77430;SDS011;66498;48.564;19.272;2023-02-15T00:31:11;41.77;;;20.07;;
77430;SDS011;66498;48.564;19.272;2023-02-15T00:33:38;44.63;;;22.70;;
77430;SDS011;66498;48.564;19.272;2023-02-15T00:36:05;43.73;;;21.23;;
77430;SDS011;66498;48.564;19.272;2023-02-15T00:38:33;39.43;;;20.03;;
77430;SDS011;66498;48.564;19.272;2023-02-15T00:41:00;44.83;;;21.60;;
77430;SDS011;66498;48.564;19.272;2023-02-15T00:43:29;39.87;;;20.50;;
77430;SDS011;66498;48.564;19.272;2023-02-15T00:45:55;39.57;;;19.70;;
77430;SDS011;66498;48.564;19.272;2023-02-15T00:48:22;36.87;;;19.97;;
77430;SDS011;66498;48.564;19.272;2023-02-15T00:50:55;44.30;;;19.80;;
77430;SDS011;66498;48.564;19.272;2023-02-15T00:53:22;39.90;;;20.90;;
77430;SDS011;66498;48.564;19.272;2023-02-15T00:55:50;37.00;;;19.23;;
77430;SDS011;66498;48.564;19.272;2023-02-15T00:58:16;37.90;;;19.55;;
77430;SDS011;66498;48.564;19.272;2023-02-15T01:00:43;40.43;;;19.90;;
77430;SDS011;66498;48.564;19.272;2023-02-15T01:03:10;42.23;;;20.13;;
77430;SDS011;66498;48.564;19.272;2023-02-15T01:05:36;42.77;;;21.40;;
77430;SDS011;66498;48.564;19.272;2023-02-15T01:08:02;46.07;;;22.70;;
77430;SDS011;66498;48.564;19.272;2023-02-15T01:10:28;50.93;;;22.20;;
77430;SDS011;66498;48.564;19.272;2023-02-15T01:12:54;52.20;;;23.40;;
77430;SDS011;66498;48.564;19.272;2023-02-15T01:15:20;48.60;;;22.73;;
77430;SDS011;66498;48.564;19.272;2023-02-15T01:17:46;46.73;;;22.50;;
77430;SDS011;66498;48.564;19.272;2023-02-15T01:20:16;43.33;;;21.73;;
77430;SDS011;66498;48.564;19.272;2023-02-15T01:22:43;69.17;;;27.53;;
77430;SDS011;66498;48.564;19.272;2023-02-15T01:25:08;71.93;;;29.17;;
77430;SDS011;66498;48.564;19.272;2023-02-15T01:27:34;75.10;;;29.23;;
77430;SDS011;66498;48.564;19.272;2023-02-15T01:30:00;76.17;;;29.93;;
77430;SDS011;66498;48.564;19.272;2023-02-15T01:32:26;78.73;;;30.03;;
77430;SDS011;66498;48.564;19.272;2023-02-15T01:34:52;75.50;;;30.47;;
77430;SDS011;66498;48.564;19.272;2023-02-15T01:37:17;58.47;;;26.10;;
77430;SDS011;66498;48.564;19.272;2023-02-15T01:39:43;55.13;;;26.27;;
77430;SDS011;66498;48.564;19.272;2023-02-15T01:42:10;53.03;;;24.27;;
77430;SDS011;66498;48.564;19.272;2023-02-15T01:44:47;57.40;;;26.10;;
77430;SDS011;66498;48.564;19.272;2023-02-15T01:55:32;51.07;;;23.33;;
77430;SDS011;66498;48.564;19.272;2023-02-15T01:58:01;46.90;;;22.77;;
77430;SDS011;66498;48.564;19.272;2023-02-15T02:00:28;40.23;;;21.67;;
77430;SDS011;66498;48.564;19.272;2023-02-15T02:02:55;41.07;;;20.87;;
77430;SDS011;66498;48.564;19.272;2023-02-15T02:05:22;39.77;;;21.10;;
77430;SDS011;66498;48.564;19.272;2023-02-15T02:07:48;37.93;;;18.73;;
77430;SDS011;66498;48.564;19.272;2023-02-15T02:10:18;29.23;;;16.40;;
77430;SDS011;66498;48.564;19.272;2023-02-15T02:12:47;33.67;;;17.23;;
77430;SDS011;66498;48.564;19.272;2023-02-15T02:15:17;52.10;;;24.20;;
77430;SDS011;66498;48.564;19.272;2023-02-15T02:23:37;55.90;;;27.80;;
77430;SDS011;66498;48.564;19.272;2023-02-15T02:28:45;41.63;;;21.00;;
77430;SDS011;66498;48.564;19.272;2023-02-15T02:31:27;41.07;;;19.30;;
77430;SDS011;66498;48.564;19.272;2023-02-15T02:42:38;54.30;;;23.53;;
77430;SDS011;66498;48.564;19.272;2023-02-15T02:45:06;47.60;;;22.07;;
77430;SDS011;66498;48.564;19.272;2023-02-15T02:50:26;46.13;;;21.63;;
77430;SDS011;66498;48.564;19.272;2023-02-15T02:52:54;46.57;;;22.57;;
77430;SDS011;66498;48.564;19.272;2023-02-15T02:58:05;47.67;;;21.57;;
77430;SDS011;66498;48.564;19.272;2023-02-15T03:00:33;44.93;;;21.77;;
77430;SDS011;66498;48.564;19.272;2023-02-15T03:03:07;45.50;;;20.87;;
77430;SDS011;66498;48.564;19.272;2023-02-15T03:05:41;39.87;;;19.73;;
77430;SDS011;66498;48.564;19.272;2023-02-15T03:08:10;38.13;;;19.97;;
77430;SDS011;66498;48.564;19.272;2023-02-15T03:10:37;39.93;;;20.30;;
77430;SDS011;66498;48.564;19.272;2023-02-15T03:13:05;39.47;;;19.77;;
77430;SDS011;66498;48.564;19.272;2023-02-15T03:15:36;42.60;;;20.53;;
77430;SDS011;66498;48.564;19.272;2023-02-15T03:18:28;46.43;;;22.40;;
77430;SDS011;66498;48.564;19.272;2023-02-15T03:21:00;44.37;;;21.80;;
77430;SDS011;66498;48.564;19.272;2023-02-15T03:23:28;44.63;;;22.27;;
77430;SDS011;66498;48.564;19.272;2023-02-15T03:25:59;41.87;;;20.60;;
77430;SDS011;66498;48.564;19.272;2023-02-15T03:28:34;44.17;;;21.23;;
77430;SDS011;66498;48.564;19.272;2023-02-15T03:31:06;47.20;;;24.27;;
77430;SDS011;66498;48.564;19.272;2023-02-15T03:33:34;44.53;;;22.30;;
77430;SDS011;66498;48.564;19.272;2023-02-15T03:38:36;44.30;;;22.17;;
77430;SDS011;66498;48.564;19.272;2023-02-15T03:41:12;45.30;;;21.77;;
77430;SDS011;66498;48.564;19.272;2023-02-15T03:47:04;44.53;;;21.13;;
77430;SDS011;66498;48.564;19.272;2023-02-15T03:49:17;45.90;;;22.70;;
77430;SDS011;66498;48.564;19.272;2023-02-15T03:51:48;45.27;;;21.07;;
77430;SDS011;66498;48.564;19.272;2023-02-15T03:57:13;39.90;;;18.23;;
77430;SDS011;66498;48.564;19.272;2023-02-15T04:00:09;32.60;;;16.33;;
77430;SDS011;66498;48.564;19.272;2023-02-15T04:05:36;35.47;;;16.47;;
77430;SDS011;66498;48.564;19.272;2023-02-15T04:08:03;33.10;;;16.43;;
77430;SDS011;66498;48.564;19.272;2023-02-15T04:10:29;31.30;;;15.53;;
77430;SDS011;66498;48.564;19.272;2023-02-15T04:13:13;25.73;;;13.85;;
77430;SDS011;66498;48.564;19.272;2023-02-15T04:15:38;25.13;;;13.00;;
77430;SDS011;66498;48.564;19.272;2023-02-15T04:18:23;25.80;;;13.25;;
77430;SDS011;66498;48.564;19.272;2023-02-15T04:21:07;30.65;;;14.93;;
77430;SDS011;66498;48.564;19.272;2023-02-15T04:23:51;31.33;;;15.55;;
77430;SDS011;66498;48.564;19.272;2023-02-15T04:26:35;41.42;;;19.13;;
77430;SDS011;66498;48.564;19.272;2023-02-15T04:29:00;37.93;;;18.43;;
77430;SDS011;66498;48.564;19.272;2023-02-15T04:31:26;40.77;;;20.17;;
77430;SDS011;66498;48.564;19.272;2023-02-15T04:33:52;40.27;;;20.97;;
77430;SDS011;66498;48.564;19.272;2023-02-15T04:36:17;40.53;;;20.10;;
77430;SDS011;66498;48.564;19.272;2023-02-15T04:38:43;44.30;;;20.97;;
77430;SDS011;66498;48.564;19.272;2023-02-15T04:41:08;48.73;;;22.70;;
77430;SDS011;66498;48.564;19.272;2023-02-15T04:43:35;51.23;;;22.70;;
77430;SDS011;66498;48.564;19.272;2023-02-15T04:46:03;60.43;;;26.70;;
77430;SDS011;66498;48.564;19.272;2023-02-15T04:48:29;59.57;;;26.47;;
77430;SDS011;66498;48.564;19.272;2023-02-15T04:50:55;43.03;;;20.40;;
77430;SDS011;66498;48.564;19.272;2023-02-15T04:53:21;43.20;;;20.30;;
77430;SDS011;66498;48.564;19.272;2023-02-15T04:55:46;44.67;;;22.07;;
77430;SDS011;66498;48.564;19.272;2023-02-15T04:58:12;43.03;;;21.23;;
77430;SDS011;66498;48.564;19.272;2023-02-15T05:00:37;44.97;;;22.40;;
77430;SDS011;66498;48.564;19.272;2023-02-15T05:03:03;47.07;;;21.67;;
77430;SDS011;66498;48.564;19.272;2023-02-15T05:05:28;43.50;;;20.93;;
77430;SDS011;66498;48.564;19.272;2023-02-15T05:07:54;42.00;;;20.03;;
77430;SDS011;66498;48.564;19.272;2023-02-15T05:10:19;43.30;;;19.77;;
77430;SDS011;66498;48.564;19.272;2023-02-15T05:12:45;46.43;;;21.00;;
77430;SDS011;66498;48.564;19.272;2023-02-15T05:15:10;41.53;;;20.53;;
77430;SDS011;66498;48.564;19.272;2023-02-15T05:17:36;44.33;;;20.10;;
77430;SDS011;66498;48.564;19.272;2023-02-15T05:20:02;41.60;;;20.87;;
77430;SDS011;66498;48.564;19.272;2023-02-15T05:22:28;42.43;;;20.33;;
77430;SDS011;66498;48.564;19.272;2023-02-15T05:24:53;39.57;;;20.00;;
77430;SDS011;66498;48.564;19.272;2023-02-15T05:27:37;40.50;;;19.88;;
77430;SDS011;66498;48.564;19.272;2023-02-15T05:30:21;41.53;;;20.63;;
77430;SDS011;66498;48.564;19.272;2023-02-15T05:32:47;47.37;;;19.83;;
77430;SDS011;66498;48.564;19.272;2023-02-15T05:35:13;43.33;;;20.50;;
77430;SDS011;66498;48.564;19.272;2023-02-15T05:37:40;41.00;;;20.33;;
77430;SDS011;66498;48.564;19.272;2023-02-15T05:40:06;40.87;;;20.20;;
77430;SDS011;66498;48.564;19.272;2023-02-15T05:42:32;43.13;;;19.93;;
77430;SDS011;66498;48.564;19.272;2023-02-15T05:45:00;40.37;;;18.50;;
77430;SDS011;66498;48.564;19.272;2023-02-15T05:47:25;38.10;;;19.07;;
77430;SDS011;66498;48.564;19.272;2023-02-15T05:49:51;47.07;;;21.17;;
77430;SDS011;66498;48.564;19.272;2023-02-15T05:52:16;44.77;;;22.27;;
77430;SDS011;66498;48.564;19.272;2023-02-15T05:54:42;46.60;;;22.40;;
77430;SDS011;66498;48.564;19.272;2023-02-15T05:57:07;42.17;;;21.20;;
77430;SDS011;66498;48.564;19.272;2023-02-15T05:59:33;49.40;;;22.83;;
77430;SDS011;66498;48.564;19.272;2023-02-15T06:01:58;48.57;;;23.80;;
77430;SDS011;66498;48.564;19.272;2023-02-15T06:04:24;51.37;;;23.57;;
77430;SDS011;66498;48.564;19.272;2023-02-15T06:06:50;45.50;;;23.10;;
77430;SDS011;66498;48.564;19.272;2023-02-15T06:09:15;46.73;;;22.90;;
77430;SDS011;66498;48.564;19.272;2023-02-15T06:11:43;49.00;;;22.97;;
77430;SDS011;66498;48.564;19.272;2023-02-15T06:14:09;51.93;;;23.10;;
77430;SDS011;66498;48.564;19.272;2023-02-15T06:16:35;41.27;;;22.20;;
77430;SDS011;66498;48.564;19.272;2023-02-15T06:19:01;51.67;;;24.00;;
77430;SDS011;66498;48.564;19.272;2023-02-15T06:21:27;48.50;;;22.50;;
77430;SDS011;66498;48.564;19.272;2023-02-15T06:23:53;44.83;;;22.03;;
77430;SDS011;66498;48.564;19.272;2023-02-15T06:26:18;38.43;;;20.00;;
77430;SDS011;66498;48.564;19.272;2023-02-15T06:28:44;42.73;;;21.80;;
77430;SDS011;66498;48.564;19.272;2023-02-15T06:31:10;49.87;;;23.13;;
77430;SDS011;66498;48.564;19.272;2023-02-15T06:33:35;54.27;;;25.13;;
77430;SDS011;66498;48.564;19.272;2023-02-15T06:36:01;51.07;;;24.57;;
77430;SDS011;66498;48.564;19.272;2023-02-15T06:38:28;43.67;;;21.20;;
77430;SDS011;66498;48.564;19.272;2023-02-15T06:40:54;44.47;;;20.77;;
77430;SDS011;66498;48.564;19.272;2023-02-15T06:43:19;46.43;;;21.90;;
77430;SDS011;66498;48.564;19.272;2023-02-15T06:45:45;47.83;;;23.33;;
77430;SDS011;66498;48.564;19.272;2023-02-15T06:48:11;53.90;;;26.07;;
77430;SDS011;66498;48.564;19.272;2023-02-15T06:50:36;58.57;;;28.90;;
77430;SDS011;66498;48.564;19.272;2023-02-15T06:53:02;65.90;;;29.33;;
77430;SDS011;66498;48.564;19.272;2023-02-15T06:55:28;52.37;;;24.60;;
77430;SDS011;66498;48.564;19.272;2023-02-15T06:57:53;49.20;;;23.07;;
77430;SDS011;66498;48.564;19.272;2023-02-15T07:00:19;48.17;;;26.13;;
77430;SDS011;66498;48.564;19.272;2023-02-15T07:02:47;59.40;;;27.03;;
77430;SDS011;66498;48.564;19.272;2023-02-15T07:05:12;65.07;;;28.80;;
77430;SDS011;66498;48.564;19.272;2023-02-15T07:07:38;77.23;;;30.80;;
77430;SDS011;66498;48.564;19.272;2023-02-15T07:10:04;80.23;;;29.73;;
77430;SDS011;66498;48.564;19.272;2023-02-15T07:12:29;91.67;;;30.93;;
77430;SDS011;66498;48.564;19.272;2023-02-15T07:15:08;102.20;;;30.03;;
77430;SDS011;66498;48.564;19.272;2023-02-15T07:17:35;72.87;;;29.47;;
77430;SDS011;66498;48.564;19.272;2023-02-15T07:20:05;94.53;;;30.30;;
77430;SDS011;66498;48.564;19.272;2023-02-15T07:22:33;120.80;;;32.40;;
77430;SDS011;66498;48.564;19.272;2023-02-15T07:25:01;101.03;;;33.17;;
77430;SDS011;66498;48.564;19.272;2023-02-15T07:27:28;80.27;;;31.60;;
77430;SDS011;66498;48.564;19.272;2023-02-15T07:29:54;90.30;;;30.60;;
77430;SDS011;66498;48.564;19.272;2023-02-15T07:32:19;115.93;;;30.17;;
77430;SDS011;66498;48.564;19.272;2023-02-15T07:34:45;92.73;;;31.27;;
77430;SDS011;66498;48.564;19.272;2023-02-15T07:37:10;97.90;;;30.10;;
77430;SDS011;66498;48.564;19.272;2023-02-15T07:39:36;88.63;;;31.67;;
77430;SDS011;66498;48.564;19.272;2023-02-15T07:42:04;94.73;;;31.73;;
77430;SDS011;66498;48.564;19.272;2023-02-15T07:44:29;79.17;;;29.77;;
77430;SDS011;66498;48.564;19.272;2023-02-15T07:46:55;109.97;;;33.00;;
77430;SDS011;66498;48.564;19.272;2023-02-15T07:49:21;85.40;;;31.10;;
77430;SDS011;66498;48.564;19.272;2023-02-15T07:51:47;143.00;;;48.67;;
77430;SDS011;66498;48.564;19.272;2023-02-15T07:54:12;94.90;;;35.50;;
77430;SDS011;66498;48.564;19.272;2023-02-15T07:56:38;100.97;;;31.07;;
77430;SDS011;66498;48.564;19.272;2023-02-15T07:59:03;108.60;;;36.40;;
77430;SDS011;66498;48.564;19.272;2023-02-15T08:01:31;69.03;;;30.43;;
77430;SDS011;66498;48.564;19.272;2023-02-15T08:03:58;99.43;;;37.37;;
77430;SDS011;66498;48.564;19.272;2023-02-15T08:06:25;71.17;;;27.50;;
77430;SDS011;66498;48.564;19.272;2023-02-15T08:08:52;65.33;;;28.40;;
77430;SDS011;66498;48.564;19.272;2023-02-15T08:11:19;73.20;;;32.03;;
77430;SDS011;66498;48.564;19.272;2023-02-15T08:14:08;84.23;;;30.17;;
77430;SDS011;66498;48.564;19.272;2023-02-15T08:16:38;80.77;;;33.70;;
77430;SDS011;66498;48.564;19.272;2023-02-15T08:19:17;75.43;;;29.33;;
77430;SDS011;66498;48.564;19.272;2023-02-15T08:21:44;82.47;;;31.70;;
77430;SDS011;66498;48.564;19.272;2023-02-15T08:24:16;82.97;;;29.87;;
77430;SDS011;66498;48.564;19.272;2023-02-15T08:26:43;83.67;;;28.77;;
77430;SDS011;66498;48.564;19.272;2023-02-15T08:29:16;81.40;;;30.50;;
77430;SDS011;66498;48.564;19.272;2023-02-15T08:31:45;71.37;;;30.43;;
77430;SDS011;66498;48.564;19.272;2023-02-15T08:34:13;84.73;;;32.03;;
77430;SDS011;66498;48.564;19.272;2023-02-15T08:36:40;72.60;;;31.47;;
77430;SDS011;66498;48.564;19.272;2023-02-15T08:39:07;73.00;;;30.40;;
77430;SDS011;66498;48.564;19.272;2023-02-15T08:41:34;67.43;;;30.43;;
77430;SDS011;66498;48.564;19.272;2023-02-15T08:44:02;66.00;;;31.33;;
77430;SDS011;66498;48.564;19.272;2023-02-15T08:46:31;64.43;;;30.80;;
77430;SDS011;66498;48.564;19.272;2023-02-15T08:49:01;70.23;;;30.23;;
77430;SDS011;66498;48.564;19.272;2023-02-15T08:51:28;69.33;;;30.70;;
77430;SDS011;66498;48.564;19.272;2023-02-15T08:53:56;69.33;;;32.20;;
77430;SDS011;66498;48.564;19.272;2023-02-15T08:56:24;77.82;;;35.00;;
77430;SDS011;66498;48.564;19.272;2023-02-15T08:58:55;75.27;;;37.00;;
77430;SDS011;66498;48.564;19.272;2023-02-15T09:01:22;65.70;;;31.50;;
77430;SDS011;66498;48.564;19.272;2023-02-15T09:03:50;64.00;;;31.30;;
77430;SDS011;66498;48.564;19.272;2023-02-15T09:06:20;60.28;;;28.45;;
77430;SDS011;66498;48.564;19.272;2023-02-15T09:08:47;64.20;;;32.17;;
77430;SDS011;66498;48.564;19.272;2023-02-15T09:11:20;59.15;;;30.40;;
77430;SDS011;66498;48.564;19.272;2023-02-15T09:13:52;55.65;;;28.63;;
77430;SDS011;66498;48.564;19.272;2023-02-15T09:16:23;52.40;;;27.73;;
77430;SDS011;66498;48.564;19.272;2023-02-15T09:18:50;54.45;;;28.60;;
77430;SDS011;66498;48.564;19.272;2023-02-15T09:21:18;49.72;;;27.85;;
77430;SDS011;66498;48.564;19.272;2023-02-15T09:23:51;53.75;;;28.75;;
77430;SDS011;66498;48.564;19.272;2023-02-15T09:26:21;50.65;;;27.33;;
77430;SDS011;66498;48.564;19.272;2023-02-15T09:28:51;48.42;;;27.55;;
77430;SDS011;66498;48.564;19.272;2023-02-15T09:31:21;46.38;;;25.95;;
77430;SDS011;66498;48.564;19.272;2023-02-15T09:33:48;50.20;;;25.98;;
77430;SDS011;66498;48.564;19.272;2023-02-15T09:36:19;48.15;;;26.75;;
77430;SDS011;66498;48.564;19.272;2023-02-15T09:38:47;47.08;;;25.83;;
77430;SDS011;66498;48.564;19.272;2023-02-15T09:44:01;44.65;;;24.60;;
77430;SDS011;66498;48.564;19.272;2023-02-15T09:46:59;40.25;;;23.17;;
77430;SDS011;66498;48.564;19.272;2023-02-15T09:52:38;41.88;;;22.73;;
77430;SDS011;66498;48.564;19.272;2023-02-15T10:20:04;44.67;;;25.35;;
77430;SDS011;66498;48.564;19.272;2023-02-15T10:27:50;50.85;;;26.70;;
77430;SDS011;66498;48.564;19.272;2023-02-15T10:30:29;46.55;;;25.88;;
77430;SDS011;66498;48.564;19.272;2023-02-15T10:33:12;47.58;;;26.90;;
77430;SDS011;66498;48.564;19.272;2023-02-15T10:41:53;43.33;;;24.67;;
77430;SDS011;66498;48.564;19.272;2023-02-15T10:44:34;42.92;;;23.27;;
77430;SDS011;66498;48.564;19.272;2023-02-15T10:47:33;42.75;;;25.38;;
77430;SDS011;66498;48.564;19.272;2023-02-15T10:50:30;45.55;;;24.98;;
77430;SDS011;66498;48.564;19.272;2023-02-15T11:07:15;45.92;;;27.00;;
77430;SDS011;66498;48.564;19.272;2023-02-15T11:10:01;52.78;;;30.15;;
77430;SDS011;66498;48.564;19.272;2023-02-15T11:12:41;51.70;;;30.13;;
77430;SDS011;66498;48.564;19.272;2023-02-15T11:25:57;49.97;;;30.90;;
77430;SDS011;66498;48.564;19.272;2023-02-15T11:28:27;52.10;;;32.72;;
77430;SDS011;66498;48.564;19.272;2023-02-15T11:30:58;53.25;;;32.90;;
77430;SDS011;66498;48.564;19.272;2023-02-15T11:33:29;45.67;;;28.33;;
77430;SDS011;66498;48.564;19.272;2023-02-15T11:36:23;53.80;;;32.92;;
77430;SDS011;66498;48.564;19.272;2023-02-15T11:38:51;49.50;;;29.48;;
77430;SDS011;66498;48.564;19.272;2023-02-15T11:41:24;47.70;;;30.60;;
77430;SDS011;66498;48.564;19.272;2023-02-15T11:43:56;48.58;;;28.92;;
77430;SDS011;66498;48.564;19.272;2023-02-15T11:46:30;43.22;;;26.52;;
77430;SDS011;66498;48.564;19.272;2023-02-15T11:48:56;39.63;;;24.92;;
77430;SDS011;66498;48.564;19.272;2023-02-15T11:51:23;44.88;;;27.23;;
77430;SDS011;66498;48.564;19.272;2023-02-15T11:53:49;41.58;;;26.25;;
77430;SDS011;66498;48.564;19.272;2023-02-15T11:56:16;39.05;;;24.98;;
77430;SDS011;66498;48.564;19.272;2023-02-15T11:59:09;42.17;;;26.05;;
77430;SDS011;66498;48.564;19.272;2023-02-15T12:01:45;48.97;;;31.42;;
77430;SDS011;66498;48.564;19.272;2023-02-15T12:06:55;46.15;;;28.50;;
77430;SDS011;66498;48.564;19.272;2023-02-15T12:14:57;63.40;;;42.92;;
77430;SDS011;66498;48.564;19.272;2023-02-15T12:17:26;72.03;;;43.72;;
77430;SDS011;66498;48.564;19.272;2023-02-15T12:19:57;52.13;;;34.42;;
77430;SDS011;66498;48.564;19.272;2023-02-15T12:22:32;90.57;;;56.63;;
77430;SDS011;66498;48.564;19.272;2023-02-15T12:27:57;52.70;;;32.38;;
77430;SDS011;66498;48.564;19.272;2023-02-15T12:33:13;137.32;;;77.00;;
77430;SDS011;66498;48.564;19.272;2023-02-15T12:36:00;119.25;;;72.78;;
77430;SDS011;66498;48.564;19.272;2023-02-15T12:38:27;130.52;;;76.70;;
77430;SDS011;66498;48.564;19.272;2023-02-15T12:40:58;122.97;;;75.63;;
77430;SDS011;66498;48.564;19.272;2023-02-15T12:43:36;132.73;;;73.70;;
77430;SDS011;66498;48.564;19.272;2023-02-15T12:51:49;122.13;;;69.38;;
77430;SDS011;66498;48.564;19.272;2023-02-15T12:56:47;53.33;;;36.05;;
77430;SDS011;66498;48.564;19.272;2023-02-15T12:59:13;46.97;;;28.85;;
77430;SDS011;66498;48.564;19.272;2023-02-15T13:01:45;57.60;;;36.58;;
77430;SDS011;66498;48.564;19.272;2023-02-15T13:06:45;41.55;;;27.58;;
77430;SDS011;66498;48.564;19.272;2023-02-15T13:11:50;85.80;;;44.03;;
77430;SDS011;66498;48.564;19.272;2023-02-15T13:14:27;51.90;;;31.23;;
77430;SDS011;66498;48.564;19.272;2023-02-15T13:16:56;41.75;;;27.33;;
77430;SDS011;66498;48.564;19.272;2023-02-15T13:22:07;45.20;;;31.23;;
77430;SDS011;66498;48.564;19.272;2023-02-15T13:24:57;38.30;;;25.73;;
77430;SDS011;66498;48.564;19.272;2023-02-15T13:27:44;32.38;;;20.42;;
77430;SDS011;66498;48.564;19.272;2023-02-15T13:30:16;30.63;;;20.30;;
77430;SDS011;66498;48.564;19.272;2023-02-15T13:32:43;30.27;;;19.10;;
77430;SDS011;66498;48.564;19.272;2023-02-15T13:35:14;32.50;;;21.08;;
77430;SDS011;66498;48.564;19.272;2023-02-15T13:40:28;41.08;;;25.85;;
77430;SDS011;66498;48.564;19.272;2023-02-15T13:46:08;44.33;;;28.58;;
77430;SDS011;66498;48.564;19.272;2023-02-15T13:57:04;45.10;;;27.70;;
77430;SDS011;66498;48.564;19.272;2023-02-15T14:00:03;45.60;;;29.67;;
77430;SDS011;66498;48.564;19.272;2023-02-15T14:02:47;37.78;;;24.58;;
77430;SDS011;66498;48.564;19.272;2023-02-15T14:05:35;32.10;;;21.63;;
77430;SDS011;66498;48.564;19.272;2023-02-15T14:16:32;36.00;;;24.92;;
77430;SDS011;66498;48.564;19.272;2023-02-15T14:22:08;34.40;;;22.25;;
77430;SDS011;66498;48.564;19.272;2023-02-15T14:24:51;32.65;;;20.83;;
77430;SDS011;66498;48.564;19.272;2023-02-15T14:30:15;29.63;;;20.42;;
77430;SDS011;66498;48.564;19.272;2023-02-15T14:32:47;34.03;;;22.60;;
77430;SDS011;66498;48.564;19.272;2023-02-15T14:35:18;32.13;;;20.55;;
77430;SDS011;66498;48.564;19.272;2023-02-15T14:49:28;34.13;;;19.85;;
77430;SDS011;66498;48.564;19.272;2023-02-15T14:52:02;30.00;;;20.17;;
77430;SDS011;66498;48.564;19.272;2023-02-15T14:59:50;30.60;;;21.05;;
77430;SDS011;66498;48.564;19.272;2023-02-15T15:02:41;30.23;;;19.92;;
77430;SDS011;66498;48.564;19.272;2023-02-15T15:07:49;29.27;;;18.85;;
77430;SDS011;66498;48.564;19.272;2023-02-15T15:13:34;31.67;;;18.73;;
77430;SDS011;66498;48.564;19.272;2023-02-15T15:19:07;28.55;;;18.33;;
77430;SDS011;66498;48.564;19.272;2023-02-15T15:24:59;31.58;;;19.02;;
77430;SDS011;66498;48.564;19.272;2023-02-15T15:49:57;30.65;;;18.92;;
77430;SDS011;66498;48.564;19.272;2023-02-15T15:52:25;33.97;;;19.52;;
77430;SDS011;66498;48.564;19.272;2023-02-15T15:54:57;30.35;;;17.27;;
77430;SDS011;66498;48.564;19.272;2023-02-15T15:57:41;31.15;;;17.70;;
77430;SDS011;66498;48.564;19.272;2023-02-15T16:00:44;29.75;;;17.40;;
77430;SDS011;66498;48.564;19.272;2023-02-15T16:03:16;29.25;;;18.48;;
77430;SDS011;66498;48.564;19.272;2023-02-15T16:05:47;29.33;;;18.45;;
77430;SDS011;66498;48.564;19.272;2023-02-15T16:08:25;28.60;;;16.92;;
77430;SDS011;66498;48.564;19.272;2023-02-15T16:10:51;26.30;;;16.48;;
77430;SDS011;66498;48.564;19.272;2023-02-15T16:13:17;28.73;;;17.77;;
77430;SDS011;66498;48.564;19.272;2023-02-15T16:15:44;31.65;;;18.90;;
77430;SDS011;66498;48.564;19.272;2023-02-15T16:18:15;28.65;;;17.52;;
77430;SDS011;66498;48.564;19.272;2023-02-15T16:20:48;31.63;;;18.00;;
77430;SDS011;66498;48.564;19.272;2023-02-15T16:29:01;38.72;;;22.85;;
77430;SDS011;66498;48.564;19.272;2023-02-15T16:31:38;43.33;;;25.40;;
77430;SDS011;66498;48.564;19.272;2023-02-15T16:34:07;38.53;;;23.92;;
77430;SDS011;66498;48.564;19.272;2023-02-15T16:36:41;45.13;;;24.85;;
77430;SDS011;66498;48.564;19.272;2023-02-15T16:39:12;44.15;;;24.73;;
77430;SDS011;66498;48.564;19.272;2023-02-15T16:41:43;36.80;;;22.27;;
77430;SDS011;66498;48.564;19.272;2023-02-15T16:44:18;48.53;;;25.02;;
77430;SDS011;66498;48.564;19.272;2023-02-15T16:46:51;45.30;;;26.67;;
77430;SDS011;66498;48.564;19.272;2023-02-15T16:49:20;45.13;;;26.85;;
77430;SDS011;66498;48.564;19.272;2023-02-15T16:52:04;46.90;;;27.42;;
77430;SDS011;66498;48.564;19.272;2023-02-15T16:54:32;45.53;;;26.67;;
77430;SDS011;66498;48.564;19.272;2023-02-15T16:57:00;42.22;;;24.75;;
77430;SDS011;66498;48.564;19.272;2023-02-15T16:59:31;41.78;;;25.10;;
77430;SDS011;66498;48.564;19.272;2023-02-15T17:01:58;42.95;;;25.08;;
77430;SDS011;66498;48.564;19.272;2023-02-15T17:04:29;42.53;;;25.90;;
77430;SDS011;66498;48.564;19.272;2023-02-15T17:07:00;40.80;;;25.13;;
77430;SDS011;66498;48.564;19.272;2023-02-15T17:09:48;39.72;;;23.42;;
77430;SDS011;66498;48.564;19.272;2023-02-15T17:15:28;40.42;;;23.23;;
77430;SDS011;66498;48.564;19.272;2023-02-15T17:18:20;40.65;;;23.85;;
77430;SDS011;66498;48.564;19.272;2023-02-15T17:20:47;45.80;;;25.75;;
77430;SDS011;66498;48.564;19.272;2023-02-15T17:23:24;46.33;;;24.30;;
77430;SDS011;66498;48.564;19.272;2023-02-15T17:25:57;43.28;;;23.98;;
77430;SDS011;66498;48.564;19.272;2023-02-15T17:28:24;44.05;;;24.70;;
77430;SDS011;66498;48.564;19.272;2023-02-15T17:30:53;46.22;;;26.17;;
77430;SDS011;66498;48.564;19.272;2023-02-15T17:33:22;35.42;;;19.85;;
77430;SDS011;66498;48.564;19.272;2023-02-15T17:36:04;34.75;;;19.58;;
77430;SDS011;66498;48.564;19.272;2023-02-15T17:38:34;32.95;;;19.48;;
77430;SDS011;66498;48.564;19.272;2023-02-15T17:41:01;31.48;;;18.45;;
77430;SDS011;66498;48.564;19.272;2023-02-15T17:43:27;29.70;;;17.95;;
77430;SDS011;66498;48.564;19.272;2023-02-15T17:45:53;32.20;;;18.50;;
77430;SDS011;66498;48.564;19.272;2023-02-15T17:50:55;46.45;;;26.60;;
77430;SDS011;66498;48.564;19.272;2023-02-15T17:53:21;51.92;;;28.95;;
77430;SDS011;66498;48.564;19.272;2023-02-15T17:55:48;63.17;;;33.85;;
77430;SDS011;66498;48.564;19.272;2023-02-15T17:58:15;64.55;;;35.47;;
77430;SDS011;66498;48.564;19.272;2023-02-15T18:00:46;64.15;;;34.58;;
77430;SDS011;66498;48.564;19.272;2023-02-15T18:03:40;62.45;;;35.20;;
77430;SDS011;66498;48.564;19.272;2023-02-15T18:06:30;63.67;;;36.13;;
77430;SDS011;66498;48.564;19.272;2023-02-15T18:09:16;62.65;;;35.13;;
77430;SDS011;66498;48.564;19.272;2023-02-15T18:12:22;64.93;;;35.55;;
77430;SDS011;66498;48.564;19.272;2023-02-15T18:14:52;65.38;;;36.22;;
77430;SDS011;66498;48.564;19.272;2023-02-15T18:17:19;73.38;;;40.03;;
77430;SDS011;66498;48.564;19.272;2023-02-15T18:19:52;73.38;;;39.42;;